sensor_id;sensor_type;location;lat;lon;timestamp;pressure;altitude;pressure_sealevel;temperature;humidity
6425;BME280;12193;42.642;23.384;2022-12-29T04:08:37;95331.03;;;2.95;100.00
6425;BME280;12193;42.642;23.384;2022-12-29T04:11:07;95326.03;;;2.84;100.00
6425;BME280;12193;42.642;23.384;2022-12-29T04:13:36;95324.25;;;2.75;100.00
6425;BME280;12193;42.642;23.384;2022-12-29T04:16:07;95316.28;;;2.59;100.00
6425;BME280;12193;42.642;23.384;2022-12-29T04:18:36;95326.16;;;3.01;100.00
6425;BME280;12193;42.642;23.384;2022-12-29T04:21:06;95327.94;;;2.91;100.00
6425;BME280;12193;42.642;23.384;2022-12-29T04:23:38;95323.34;;;2.95;100.00
6425;BME280;12193;42.642;23.384;2022-12-29T04:26:08;95326.16;;;3.01;100.00
6425;BME280;12193;42.642;23.384;2022-12-29T04:28:38;95329.16;;;3.06;100.00
6425;BME280;12193;42.642;23.384;2022-12-29T04:31:07;95331.56;;;3.07;100.00
6425;BME280;12193;42.642;23.384;2022-12-29T04:33:36;95326.84;;;3.22;100.00
6425;BME280;12193;42.642;23.384;2022-12-29T04:36:06;95330.06;;;3.24;100.00
6425;BME280;12193;42.642;23.384;2022-12-29T04:38:37;95334.28;;;3.25;100.00
6425;BME280;12193;42.642;23.384;2022-12-29T04:41:07;95328.88;;;3.28;100.00
6425;BME280;12193;42.642;23.384;2022-12-29T04:43:36;95333.72;;;3.31;100.00
6425;BME280;12193;42.642;23.384;2022-12-29T04:46:05;95342.63;;;3.46;100.00
6425;BME280;12193;42.642;23.384;2022-12-29T04:48:35;95351.16;;;3.37;100.00
6425;BME280;12193;42.642;23.384;2022-12-29T04:51:04;95347.63;;;3.47;100.00
6425;BME280;12193;42.642;23.384;2022-12-29T04:53:33;95351.28;;;3.54;100.00
6425;BME280;12193;42.642;23.384;2022-12-29T04:56:06;95351.78;;;3.58;100.00
6425;BME280;12193;42.642;23.384;2022-12-29T04:58:36;95352.59;;;3.77;100.00
6425;BME280;12193;42.642;23.384;2022-12-29T05:01:05;95353.25;;;3.79;100.00
6425;BME280;12193;42.642;23.384;2022-12-29T05:03:35;95362.34;;;3.74;100.00
6425;BME280;12193;42.642;23.384;2022-12-29T05:06:05;95352.75;;;3.66;100.00
6425;BME280;12193;42.642;23.384;2022-12-29T05:08:34;95354.06;;;3.80;100.00
6425;BME280;12193;42.642;23.384;2022-12-29T05:11:06;95366.47;;;3.94;100.00
6425;BME280;12193;42.642;23.384;2022-12-29T05:13:35;95354.00;;;3.99;100.00
6425;BME280;12193;42.642;23.384;2022-12-29T05:16:05;95346.19;;;3.91;100.00
6425;BME280;12193;42.642;23.384;2022-12-29T05:18:34;95354.59;;;3.83;100.00
6425;BME280;12193;42.642;23.384;2022-12-29T05:21:04;95358.78;;;3.94;100.00
6425;BME280;12193;42.642;23.384;2022-12-29T05:23:33;95347.03;;;3.72;100.00
6425;BME280;12193;42.642;23.384;2022-12-29T05:26:03;95352.16;;;3.82;100.00
6425;BME280;12193;42.642;23.384;2022-12-29T05:28:35;95352.19;;;3.72;100.00
6425;BME280;12193;42.642;23.384;2022-12-29T05:31:05;95346.50;;;3.78;100.00
6425;BME280;12193;42.642;23.384;2022-12-29T05:33:34;95353.25;;;3.79;100.00
6425;BME280;12193;42.642;23.384;2022-12-29T05:36:04;95348.06;;;3.98;100.00
6425;BME280;12193;42.642;23.384;2022-12-29T05:38:33;95354.38;;;4.04;100.00
6425;BME280;12193;42.642;23.384;2022-12-29T05:41:03;95358.19;;;4.00;100.00
6425;BME280;12193;42.642;23.384;2022-12-29T05:43:35;95355.78;;;3.98;100.00
6425;BME280;12193;42.642;23.384;2022-12-29T05:46:04;95354.66;;;4.01;100.00
6425;BME280;12193;42.642;23.384;2022-12-29T05:48:34;95356.88;;;3.96;100.00
6425;BME280;12193;42.642;23.384;2022-12-29T05:51:03;95367.94;;;3.96;100.00
6425;BME280;12193;42.642;23.384;2022-12-29T05:53:33;95369.97;;;4.02;100.00
6425;BME280;12193;42.642;23.384;2022-12-29T05:56:02;95373.09;;;3.96;100.00
6425;BME280;12193;42.642;23.384;2022-12-29T05:58:36;95368.94;;;3.86;100.00
6425;BME280;12193;42.642;23.384;2022-12-29T06:01:06;95371.06;;;3.90;100.00
6425;BME280;12193;42.642;23.384;2022-12-29T06:03:35;95377.03;;;4.00;100.00
6425;BME280;12193;42.642;23.384;2022-12-29T06:06:05;95377.13;;;3.99;100.00
6425;BME280;12193;42.642;23.384;2022-12-29T06:08:34;95380.16;;;3.85;100.00
6425;BME280;12193;42.642;23.384;2022-12-29T06:11:04;95387.31;;;4.00;100.00
6425;BME280;12193;42.642;23.384;2022-12-29T06:13:33;95385.13;;;4.05;100.00
6425;BME280;12193;42.642;23.384;2022-12-29T06:16:06;95383.97;;;4.26;100.00
6425;BME280;12193;42.642;23.384;2022-12-29T06:18:35;95373.66;;;4.63;100.00
6425;BME280;12193;42.642;23.384;2022-12-29T06:21:05;95378.72;;;4.99;100.00
6425;BME280;12193;42.642;23.384;2022-12-29T06:23:34;95370.31;;;5.14;100.00
6425;BME280;12193;42.642;23.384;2022-12-29T06:26:03;95388.75;;;5.37;100.00
6425;BME280;12193;42.642;23.384;2022-12-29T06:28:33;95379.50;;;5.69;100.00
6425;BME280;12193;42.642;23.384;2022-12-29T06:31:05;95379.38;;;5.88;100.00
6425;BME280;12193;42.642;23.384;2022-12-29T06:33:37;95380.31;;;5.70;100.00
6425;BME280;12193;42.642;23.384;2022-12-29T06:36:07;95382.06;;;6.12;100.00
6425;BME280;12193;42.642;23.384;2022-12-29T06:38:37;95382.72;;;6.14;100.00
6425;BME280;12193;42.642;23.384;2022-12-29T06:41:06;95386.50;;;6.19;100.00
6425;BME280;12193;42.642;23.384;2022-12-29T06:43:35;95388.84;;;6.72;100.00
6425;BME280;12193;42.642;23.384;2022-12-29T06:46:07;95387.22;;;7.20;100.00
6425;BME280;12193;42.642;23.384;2022-12-29T06:48:36;95384.66;;;6.79;100.00
6425;BME280;12193;42.642;23.384;2022-12-29T06:51:08;95398.44;;;6.54;100.00
6425;BME280;12193;42.642;23.384;2022-12-29T06:53:37;95396.56;;;6.30;100.00
6425;BME280;12193;42.642;23.384;2022-12-29T06:56:07;95396.47;;;5.89;100.00
6425;BME280;12193;42.642;23.384;2022-12-29T06:58:36;95394.50;;;5.91;100.00
6425;BME280;12193;42.642;23.384;2022-12-29T07:01:08;95395.72;;;5.79;100.00
6425;BME280;12193;42.642;23.384;2022-12-29T07:03:37;95394.81;;;5.71;100.00
6425;BME280;12193;42.642;23.384;2022-12-29T07:06:07;95399.50;;;5.50;100.00
6425;BME280;12193;42.642;23.384;2022-12-29T07:08:36;95397.78;;;5.41;100.00
